Birmingham (BHM/KBHM)

Map

Destinations

Information

Location
Birmingham, AL
Local Time
18:30 / 6:30 pm
GMT Time
22:30 / 10:30 pm
Gates
Unassigned
No FAA reported delays
METAR KBHM 272153Z 20014G21KT 10SM SCT060 BKN250 27/13 A2989 RMK AO2 PK WND 17026/2127 LTG DSNT N AND S AND NW SLP115 T02720128
TAF KBHM 272155Z 2722/2818 20008G15KT P6SM VCTS BKN035CB FM280300 19007KT P6SM VCTS OVC030CB FM281200 23006KT P6SM VCSH BKN035
  • No charts available